Date,TemperatureHighF,TemperatureAvgF,TemperatureLowF,DewpointHighF,DewpointAvgF,DewpointLowF,HumidityHigh,HumidityAvg,HumidityLow,PressureMaxIn,PressureMinIn,WindSpeedMaxMPH,WindSpeedAvgMPH,GustSpeedMaxMPH,PrecipitationSumIn
2013-8-1,81.4,71.8,62.9,67.5,63.6,59.0,99,77,51,30.06,29.96,6,0,8,0.00
2013-8-2,84.7,75.3,67.7,73.8,67.6,61.2,97,77,61,29.96,29.87,9,1,9,0.67
2013-8-3,80.2,71.8,63.9,69.9,63.3,58.2,98,77,52,30.13,29.95,6,0,7,0.01
2013-8-4,78.8,70.0,59.6,61.9,58.9,53.8,94,70,43,30.19,30.10,5,0,6,0.00
2013-8-5,74.6,68.3,60.1,67.8,63.3,57.2,95,85,67,30.11,29.88,8,1,11,0.13
2013-8-6,85.7,75.1,66.5,75.1,70.7,65.3,98,87,67,29.92,29.82,8,1,8,0.00
2013-8-7,86.7,77.6,71.8,77.9,72.6,67.2,96,85,68,29.92,29.80,7,0,7,0.00
2013-8-8,79.5,72.2,64.7,69.0,65.8,60.9,96,81,67,30.00,29.92,10,1,11,0.00
2013-8-9,82.2,72.5,59.6,68.9,63.3,56.0,91,74,53,30.07,29.98,4,0,7,0.00
2013-8-10,81.0,72.1,62.9,68.4,62.3,58.6,94,73,51,30.14,30.06,4,0,6,0.00
2013-8-11,84.2,72.5,59.0,68.3,62.9,57.3,95,74,50,30.15,30.05,5,0,6,0.00
2013-8-12,82.5,73.6,66.7,73.0,67.8,62.7,95,82,67,30.07,29.89,6,0,7,0.03
2013-8-13,74.0,66.3,57.6,64.9,56.5,49.1,93,73,45,30.16,29.94,14,0,14,0.00
2013-8-14,73.5,63.5,52.2,59.5,53.0,49.7,96,70,47,30.24,30.16,7,0,9,0.00
2013-8-15,74.5,65.5,57.4,58.3,54.8,52.0,87,70,48,30.21,30.11,8,0,8,0.00
2013-8-16,78.8,69.4,59.0,60.6,57.4,54.0,88,67,44,30.19,30.14,7,1,9,0.00
2013-8-17,78.3,68.7,57.3,62.0,58.4,54.7,91,71,51,30.24,30.15,11,1,11,0.00
2013-8-18,80.7,70.2,57.0,62.8,58.7,54.8,93,69,46,30.21,30.10,8,1,8,0.00
2013-8-19,83.8,73.5,62.5,68.0,63.8,57.8,89,73,54,30.14,30.04,6,0,7,0.00
2013-8-20,86.5,76.1,66.2,70.3,66.6,62.9,89,74,50,30.12,30.03,8,1,10,0.00
2013-8-21,88.8,78.1,69.0,71.8,68.5,65.7,90,74,51,30.10,30.00,8,1,11,0.00
2013-8-22,78.0,73.0,69.7,72.9,69.3,67.1,96,89,77,30.12,30.02,11,1,12,0.72
2013-8-23,81.8,72.5,64.2,70.7,66.3,60.4,98,82,60,30.16,30.09,10,1,12,0.00
2013-8-24,86.0,74.3,60.8,71.9,65.6,58.3,92,75,57,30.24,30.15,8,1,9,0.00
2013-8-25,89.3,77.5,68.2,72.0,67.2,63.1,85,72,53,30.27,30.15,8,1,9,0.00
2013-8-26,91.6,79.7,68.5,75.8,70.4,63.5,91,74,54,30.18,30.01,6,1,7,0.00
2013-8-27,93.2,82.7,74.3,75.7,72.2,68.4,91,72,54,30.03,29.89,8,1,9,0.00
2013-8-28,93.2,82.4,74.2,79.5,72.8,66.1,95,74,59,30.00,29.90,6,1,9,0.16
2013-8-29,82.3,74.8,69.4,75.0,71.6,68.5,98,90,75,30.07,29.97,6,1,9,0.00
2013-8-30,96.7,82.4,71.3,78.3,71.9,65.3,94,73,39,29.98,29.78,12,1,14,0.00
2013-8-31,93.0,78.8,69.7,78.6,70.7,63.0,94,77,61,29.82,29.72,6,1,9,0.00